createdAt,value
2018-01-26T23:12:48.568Z,1026.62
2018-01-26T23:13:57.284Z,1026.63
2018-01-26T23:15:07.289Z,1026.65
2018-01-26T23:16:16.504Z,1026.62
2018-01-26T23:19:43.088Z,1026.78
2018-01-26T23:20:52.296Z,1026.74
2018-01-26T23:22:00.975Z,1026.78
2018-01-26T23:23:09.652Z,1026.76
2018-01-26T23:24:18.595Z,1026.83
2018-01-26T23:25:27.559Z,1026.8
2018-01-26T23:26:36.602Z,1026.84
2018-01-26T23:27:45.557Z,1026.89
2018-01-26T23:28:54.504Z,1026.89
2018-01-26T23:30:03.187Z,1026.9
2018-01-26T23:31:12.177Z,1026.88
2018-01-26T23:32:20.824Z,1026.9
2018-01-26T23:33:29.498Z,1026.86
2018-01-26T23:34:38.984Z,1026.88
2018-01-26T23:35:48.198Z,1026.9
2018-01-26T23:36:57.410Z,1026.92
2018-01-26T23:38:06.354Z,1026.91
2018-01-26T23:39:15.033Z,1026.9
2018-01-26T23:40:24.251Z,1026.92
2018-01-26T23:41:33.471Z,1026.9
2018-01-26T23:42:42.156Z,1026.9
2018-01-26T23:43:51.367Z,1026.88
2018-01-26T23:45:00.057Z,1026.89
2018-01-26T23:46:09.543Z,1026.89
2018-01-26T23:47:18.229Z,1026.91
2018-01-26T23:48:27.181Z,1026.84
2018-01-26T23:49:35.863Z,1026.86
2018-01-26T23:50:44.812Z,1026.85
2018-01-26T23:51:53.758Z,1026.84
2018-01-26T23:53:02.707Z,1026.89
2018-01-26T23:54:11.923Z,1026.92
2018-01-26T23:55:20.608Z,1026.94
2018-01-26T23:56:29.292Z,1026.93
2018-01-26T23:57:38.244Z,1026.94
2018-01-26T23:58:47.197Z,1026.92
2018-01-26T23:59:55.881Z,1026.94
